• Join FlightAware (Why Join?)
  • Login
  • US Flag 
08:45AM EST


 

Airport Tracker/Info


-or-


 

Live Flight TrackerFlight Track Log ✈ SKQ45 ✈ 19-Apr-2013 ✈ KSTL - KOSU

Flight Track Log - Related Links

Times and Time Zones

All times are in EDT time to prevent confusion due to time zone crossing. See the SKQ45 flight status page for this flight to view local times or setup timezone preferences in your user account.

Time Position Orientation Groundspeed Altitude Reporting Facility
EDT Latitude Longitude Course Direction KTS MPH feet Rate Location/Type
11:48PM 38.7661 -90.3156 68° East 130 150 2,200  Level FAA TRACON SMA TRACON (SMA)
11:49PM 38.7753 -90.3067 37° Northeast 141 162 2,800 1,860 Climbing FAA TRACON SMA TRACON (SMA)
11:49PM 38.7844 -90.2889 57° Northeast 153 176 3,500 1,740 Climbing FAA TRACON SMA TRACON (SMA)
11:49PM 38.7917 -90.2742 58° Northeast 159 183 4,100 1,620 Climbing FAA TRACON SMA TRACON (SMA)
11:50PM 38.8003 -90.2550 60° Northeast 162 186 4,700 1,980 Climbing FAA TRACON SMA TRACON (SMA)
11:50PM 38.8072 -90.2394 60° Northeast 163 188 5,300 1,920 Climbing FAA TRACON SMA TRACON (SMA)
11:50PM 38.8147 -90.2244 57° Northeast 163 188 5,900 1,560 Climbing FAA TRACON SMA TRACON (SMA)
11:51PM 38.8219 -90.2092 59° Northeast 164 189 6,400 1,800 Climbing FAA TRACON SMA TRACON (SMA)
11:51PM 38.8314 -90.1889 59° Northeast 169 194 7,100 1,920 Climbing FAA TRACON SMA TRACON (SMA)
11:51PM 38.8400 -90.1747 52° Northeast 168 193 7,700 1,680 Climbing FAA TRACON SMA TRACON (SMA)
11:52PM 38.8492 -90.1608 50° Northeast 165 190 8,200 1,980 Climbing FAA TRACON SMA TRACON (SMA)
11:52PM 38.8600 -90.1436 51° Northeast 163 188 9,000 1,860 Climbing FAA TRACON SMA TRACON (SMA)
11:52PM 38.8697 -90.1306 46° Northeast 163 188 9,500 1,440 Climbing FAA TRACON SMA TRACON (SMA)
11:53PM 38.8786 -90.1161 52° Northeast 166 191 10,000 1,680 Climbing FAA TRACON SMA TRACON (SMA)
11:53PM 38.8903 -90.0992 49° Northeast 167 192 10,600 1,500 Climbing FAA TRACON SMA TRACON (SMA)
11:53PM 38.9003 -90.0853 47° Northeast 170 196 11,000 1,260 Climbing FAA TRACON SMA TRACON (SMA)
11:54PM 38.9097 -90.0706 50° Northeast 173 199 11,500 1,680 Climbing FAA TRACON SMA TRACON (SMA)
11:54PM 38.9211 -90.0519 52° Northeast 174 200 12,100 1,500 Climbing FAA TRACON SMA TRACON (SMA)
11:54PM 38.9317 -90.0378 46° Northeast 178 205 12,500 1,260 Climbing FAA TRACON SMA TRACON (SMA)
11:55PM 38.9417 -90.0225 50° Northeast 179 206 13,000 1,680 Climbing FAA TRACON SMA TRACON (SMA)
11:55PM 38.9533 -90.0025 53° Northeast 183 211 13,600 1,680 Climbing FAA TRACON SMA TRACON (SMA)
11:55PM 38.9625 -89.9858 55° Northeast 183 211 14,100 1,560 Climbing FAA TRACON SMA TRACON (SMA)
11:56PM 38.9725 -89.9706 50° Northeast 183 211 14,700 1,740 Climbing FAA TRACON SMA TRACON (SMA)
11:56PM 38.9847 -89.9503 52° Northeast 187 215 15,300 1,680 Climbing FAA TRACON SMA TRACON (SMA)
11:56PM 38.9964 -89.9356 44° Northeast 192 221 15,800 1,320 Climbing FAA TRACON SMA TRACON (SMA)
11:57PM 39.0064 -89.9194 51° Northeast 191 220 16,200 1,560 Climbing FAA TRACON SMA TRACON (SMA)
11:57PM 39.0203 -89.8997 48° Northeast 191 220 16,900 1,620 Climbing FAA TRACON SMA TRACON (SMA)
11:57PM 39.0300 -89.8828 54° Northeast 193 222 17,300 1,020 Climbing FAA TRACON SMA TRACON (SMA)
11:58PM 39.0411 -89.8667 48° Northeast 193 222 17,600 1,200 Climbing FAA TRACON SMA TRACON (SMA)
11:58PM 39.0553 -89.8469 47° Northeast 197 227 18,100 1,260 Climbing FAA TRACON SMA TRACON (SMA)
11:58PM 39.0650 -89.8283 56° Northeast 200 230 18,500 1,200 Climbing FAA TRACON SMA TRACON (SMA)
11:59PM 39.0756 -89.8114 51° Northeast 199 229 18,900 1,320 Climbing FAA TRACON SMA TRACON (SMA)
11:59PM 39.0883 -89.7889 54° Northeast 202 232 19,400 1,140 Climbing FAA TRACON SMA TRACON (SMA)
11:59PM 39.0981 -89.7703 56° Northeast 204 235 19,700 1,020 Climbing FAA TRACON SMA TRACON (SMA)
12:00AM 39.1083 -89.7517 55° Northeast 207 238 20,100 1,200 Climbing FAA TRACON SMA TRACON (SMA)
12:00AM 39.1203 -89.7269 58° Northeast 210 242 20,500 1,020 Climbing FAA TRACON SMA TRACON (SMA)
12:00AM 39.1294 -89.7056 61° Northeast 218 251 20,800 840 Climbing FAA TRACON SMA TRACON (SMA)
12:01AM 39.1347 -89.6800 75° East 232 267 21,100 900 Climbing FAA TRACON SMA TRACON (SMA)
12:01AM 39.1383 -89.6456 82° East 249 287 21,400 840 Climbing FAA TRACON SMA TRACON (SMA)
12:01AM 39.1422 -89.6181 80° East 254 292 21,700 1,020 Climbing FAA TRACON SMA TRACON (SMA)
12:02AM 39.1467 -89.5908 78° East 254 292 22,100 1,020 Climbing FAA TRACON SMA TRACON (SMA)
12:02AM 39.1511 -89.5567 80° East 253 291 22,400 840 Climbing FAA TRACON SMA TRACON (SMA)
12:02AM 39.1564 -89.5306 75° East 248 285 22,700 720 Climbing FAA TRACON SMA TRACON (SMA)
12:03AM 39.1617 -89.5036 76° East 249 287 22,900 420 Climbing FAA TRACON SMA TRACON (SMA)
12:03AM 39.1686 -89.4692 75° East 258 297 23,000 120 Climbing FAA TRACON SMA TRACON (SMA)
12:03AM 39.1728 -89.4389 80° East 269 310 23,000  Level FAA TRACON SMA TRACON (SMA)
12:04AM 39.1792 -89.4094 74° East 278 320 23,000  Level FAA TRACON SMA TRACON (SMA)
12:04AM 39.1842 -89.3683 81° East 293 337 23,000  Level FAA TRACON SMA TRACON (SMA)
12:04AM 39.1906 -89.3364 76° East 300 345 23,000  Level FAA TRACON SMA TRACON (SMA)
12:05AM 39.1958 -89.3031 78° East 305 351 23,000  Level FAA TRACON SMA TRACON (SMA)
12:05AM 39.2036 -89.2619 76° East 309 356 23,000  Level FAA TRACON SMA TRACON (SMA)
12:05AM 39.2078 -89.2272 81° East 314 361 23,000  Level FAA TRACON SMA TRACON (SMA)
12:06AM 39.2111 -89.2108 75° East 315 362 23,000  Level FAA TRACON SMA TRACON (SMA)
12:06AM 39.2258 -89.1886 49° Northeast 313 360 23,000  Level Kansas City Center
12:07AM 39.2442 -89.0756 78° East 321 369 23,000  Level Kansas City Center
12:08AM 39.2631 -88.9639 78° East 321 369 23,000  Level Kansas City Center
12:09AM 39.2831 -88.8517 77° East 321 369 23,000  Level Kansas City Center
12:10AM 39.3006 -88.7378 79° East 323 372 23,000  Level Kansas City Center
12:11AM 39.3192 -88.6247 78° East 323 372 23,000  Level Kansas City Center
12:12AM 39.3400 -88.5011 78° East 324 373 23,000  Level Kansas City Center
12:13AM 39.3592 -88.3856 78° East 326 375 23,000  Level Kansas City Center
12:14AM 39.3767 -88.2706 79° East 326 375 23,000  Level Kansas City Center
12:16AM 39.3942 -88.1556 79° East 325 374 23,000  Level Kansas City Center
12:17AM 39.4122 -88.0394 79° East 326 375 23,000  Level Kansas City Center
12:18AM 39.4297 -87.9256 79° East 324 373 23,000  Level Kansas City Center
12:18AM 39.4475 -87.8128 78° East 324 373 23,000  Level Indianapolis Center
12:19AM 39.4653 -87.6975 79° East 324 373 23,000  Level Indianapolis Center
12:20AM 39.4836 -87.5822 78° East 325 374 23,000  Level Indianapolis Center
12:21AM 39.4997 -87.4706 79° East 320 368 23,000  Level Indianapolis Center
12:22AM 39.5169 -87.3589 79° East 317 365 23,000  Level Indianapolis Center
12:23AM 39.5336 -87.2467 79° East 315 362 23,000  Level Indianapolis Center
12:24AM 39.5508 -87.1328 79° East 318 366 23,000  Level Indianapolis Center
12:26AM 39.5667 -87.0217 79° East 314 361 23,000  Level Indianapolis Center
12:27AM 39.5839 -86.9106 79° East 313 360 23,000  Level Indianapolis Center
12:28AM 39.6000 -86.7992 79° East 313 360 23,000  Level Indianapolis Center
12:29AM 39.6167 -86.6853 79° East 319 367 23,000  Level Indianapolis Center
12:30AM 39.6325 -86.5744 79° East 314 361 23,000  Level Indianapolis Center
12:31AM 39.6492 -86.4581 79° East 321 369 23,000  Level Indianapolis Center
12:32AM 39.6656 -86.3442 79° East 320 368 23,000  Level Indianapolis Center
12:33AM 39.6808 -86.2297 80° East 320 368 23,000  Level Indianapolis Center
12:34AM 39.6975 -86.1169 79° East 318 366 23,000  Level Indianapolis Center
12:35AM 39.7125 -86.0011 80° East 321 369 23,000 -60 Level Indianapolis Center
12:36AM 39.7292 -85.8797 80° East 321 369 22,900  Descending Indianapolis Center
12:37AM 39.7464 -85.7650 79° East 321 369 23,000  Climbing Indianapolis Center
12:38AM 39.7617 -85.6489 80° East 323 372 23,000  Level Indianapolis Center
12:39AM 39.7775 -85.5336 80° East 323 372 23,000  Level Indianapolis Center
12:40AM 39.7928 -85.4161 80° East 325 374 23,000 -60 Level Indianapolis Center
12:41AM 39.8092 -85.3003 80° East 325 374 22,900 -180 Descending Indianapolis Center
12:42AM 39.8231 -85.1839 81° East 325 374 22,700 -780 Descending Indianapolis Center
12:43AM 39.8381 -85.0600 81° East 341 392 21,400 -1,440 Descending Indianapolis Center
12:44AM 39.8558 -84.9389 79° East 338 389 19,900 -1,440 Descending Indianapolis Center
12:45AM 39.8700 -84.8250 81° East 319 367 18,500 -1,380 Descending Indianapolis Center
12:46AM 39.8853 -84.7092 80° East 322 371 17,100 -1,380 Descending Indianapolis Center
12:47AM 39.8997 -84.5919 81° East 324 373 15,800 -1,320 Descending Indianapolis Center
12:48AM 39.9153 -84.4767 80° East 322 371 14,500 -1,200 Descending Indianapolis Center
12:49AM 39.9289 -84.3631 81° East 319 367 13,400 -1,140 Descending Indianapolis Center
12:50AM 39.9425 -84.2494 81° East 315 362 12,200 -1,200 Descending Indianapolis Center
12:51AM 39.9564 -84.1350 81° East 316 364 11,000 -1,200 Descending Indianapolis Center
12:52AM 39.9669 -84.0383 82° East 311 358 10,100 -1,200 Descending Indianapolis Center
12:53AM 39.9794 -83.9311 81° East 295 339 8,800 -1,260 Descending Indianapolis Center
12:54AM 39.9939 -83.8239 80° East 289 333 7,600 -1,080 Descending Indianapolis Center
12:55AM 40.0056 -83.7247 81° East 274 315 6,700 -900 Descending Indianapolis Center
12:56AM 40.0175 -83.6197 82° East 282 325 5,800 -900 Descending Indianapolis Center
12:57AM 40.0281 -83.5314 81° East 283 326 5,000 -960 Descending Indianapolis Center
12:57AM 40.0303 -83.5067 83° East 280 322 4,700 -900 Descending Indianapolis Center
12:58AM 40.0394 -83.4319 81° East 275 316 4,100 -840 Descending Indianapolis Center
12:58AM 40.0425 -83.4058 81° East 278 320 3,900 -900 Descending Indianapolis Center
12:59AM 40.0508 -83.3297 82° East 280 322 3,200 -900 Descending Indianapolis Center
12:59AM 40.0544 -83.3036 80° East 279 321 3,000 -300 Descending Indianapolis Center
01:00AM 40.0619 -83.2331 82° East 257 296 2,900 -300 Descending Indianapolis Center
01:00AM 40.0647 -83.2086 82° East 272 313 2,700 -840 Descending Indianapolis Center
01:01AM 40.0703 -83.1442 84° East 253 291 2,100 -840 Descending Indianapolis Center
01:01AM 40.0719 -83.1186 85° East 257 296 1,900 -420 Descending Indianapolis Center
01:02AM 40.0669 -83.0700 98° East 187 215 1,700 -300 Descending Indianapolis Center
01:02AM 40.0656 -83.0528 96° East 206 237 1,600 -240 Descending Indianapolis Center
01:03AM 40.1019 -83.0556 357° North 201 231 1,400 -240 Descending Indianapolis Center
01:05AM 40.0798 -83.0732 201° Southwest  Level Estimated